createdAt,value
2023-10-20T00:00:23.061Z,97362.56
2023-10-20T00:03:12.096Z,97372.44
2023-10-20T00:05:41.532Z,97373.50
2023-10-20T00:08:08.670Z,97378.81
2023-10-20T00:10:40.633Z,97386.06
2023-10-20T00:13:10.844Z,97372.97
2023-10-20T00:15:41.354Z,97378.28
2023-10-20T00:18:48.079Z,97374.03
2023-10-20T00:21:16.695Z,97373.50
2023-10-20T00:23:44.281Z,97362.03
2023-10-20T00:26:14.626Z,97355.91
2023-10-20T00:28:43.851Z,97352.44
2023-10-20T00:31:12.444Z,97358.81
2023-10-20T00:34:10.572Z,97357.47
2023-10-20T00:36:42.265Z,97351.91
2023-10-20T00:39:11.947Z,97354.81
2023-10-20T00:41:43.608Z,97363.91
2023-10-20T00:44:10.897Z,97355.63
2023-10-20T00:46:38.619Z,97343.38
2023-10-20T00:49:06.383Z,97351.63
2023-10-20T00:58:44.116Z,97340.94
2023-10-20T01:01:30.904Z,97337.22
2023-10-20T01:04:20.661Z,97329.47
2023-10-20T01:07:08.914Z,97335.59
2023-10-20T01:10:01.151Z,97333.47
2023-10-20T01:12:48.863Z,97319.59
2023-10-20T01:15:34.879Z,97313.22
2023-10-20T01:18:21.041Z,97326.56
2023-10-20T01:21:09.460Z,97327.38
2023-10-20T01:23:55.949Z,97328.13
2023-10-20T01:26:41.285Z,97328.94
2023-10-20T01:29:26.673Z,97315.34
2023-10-20T01:32:12.324Z,97313.22
2023-10-20T01:34:58.254Z,97302.03
2023-10-20T01:37:44.369Z,97290.53
2023-10-20T01:40:29.827Z,97285.22
2023-10-20T01:43:15.194Z,97277.47
2023-10-20T01:46:02.732Z,97282.78
2023-10-20T01:48:48.110Z,97284.94
2023-10-20T01:51:35.795Z,97294.03
2023-10-20T01:54:21.147Z,97281.75
2023-10-20T01:57:06.720Z,97277.50
2023-10-20T01:59:52.195Z,97280.69
2023-10-20T02:02:37.642Z,97275.06
2023-10-20T02:05:24.045Z,97272.13
2023-10-20T02:08:09.998Z,97256.69
2023-10-20T02:10:56.267Z,97273.44
2023-10-20T02:13:43.822Z,97273.72
2023-10-20T02:16:29.319Z,97257.72
2023-10-20T02:19:16.710Z,97248.69
2023-10-20T02:22:02.899Z,97250.25
2023-10-20T02:24:48.664Z,97248.69
2023-10-20T02:27:34.089Z,97244.91
2023-10-20T02:30:20.183Z,97252.66
2023-10-20T02:33:06.759Z,97252.41
2023-10-20T02:35:55.522Z,97267.59
2023-10-20T02:38:41.236Z,97271.88
2023-10-20T02:41:26.627Z,97272.69
2023-10-20T02:44:14.671Z,97268.94
2023-10-20T02:47:00.110Z,97257.19
2023-10-20T02:49:46.540Z,97256.66
2023-10-20T02:52:32.075Z,97253.44
2023-10-20T02:55:17.536Z,97243.59
2023-10-20T02:58:02.739Z,97235.59
2023-10-20T03:00:51.497Z,97236.09
2023-10-20T03:03:37.859Z,97244.38
2023-10-20T03:06:23.783Z,97247.06
2023-10-20T03:09:09.611Z,97251.34
2023-10-20T03:11:55.081Z,97245.19
2023-10-20T03:14:40.648Z,97239.06
2023-10-20T03:17:27.848Z,97240.66
2023-10-20T03:20:18.638Z,97231.56
2023-10-20T03:23:04.581Z,97230.53
2023-10-20T03:25:55.055Z,97217.72
2023-10-20T03:28:41.638Z,97207.31
2023-10-20T03:31:27.234Z,97202.75
2023-10-20T03:34:12.804Z,97199.84
2023-10-20T03:37:01.904Z,97200.63
2023-10-20T03:39:48.034Z,97196.88
2023-10-20T03:42:34.260Z,97203.84
2023-10-20T03:45:28.058Z,97203.84
2023-10-20T03:48:13.604Z,97199.03
2023-10-20T03:50:59.434Z,97195.28
2023-10-20T03:53:48.976Z,97200.88
2023-10-20T03:56:36.326Z,97201.16
2023-10-20T03:59:21.793Z,97199.03
2023-10-20T04:02:07.225Z,97188.88
2023-10-20T04:04:53.130Z,97187.81
2023-10-20T04:07:38.366Z,97194.47
2023-10-20T04:10:24.333Z,97197.91
2023-10-20T04:13:11.339Z,97196.84
2023-10-20T04:16:14.209Z,97198.47
2023-10-20T04:19:02.022Z,97180.84
2023-10-20T04:21:47.610Z,97179.78
2023-10-20T04:24:33.736Z,97175.50
2023-10-20T04:27:22.986Z,97181.63
2023-10-20T04:30:27.799Z,97174.44
2023-10-20T04:33:32.254Z,97178.16
2023-10-20T04:36:36.607Z,97178.97
2023-10-20T04:39:40.969Z,97176.00
2023-10-20T04:42:37.278Z,97184.31
2023-10-20T04:45:25.576Z,97176.56
2023-10-20T04:48:30.184Z,97178.16
2023-10-20T04:51:34.389Z,97172.81
2023-10-20T04:54:44.786Z,97168.53
2023-10-20T04:57:45.664Z,97160.81
2023-10-20T05:00:38.355Z,97158.66
2023-10-20T05:03:32.520Z,97172.53
2023-10-20T05:06:21.628Z,97181.84
2023-10-20T05:09:10.340Z,97180.81
2023-10-20T05:11:55.930Z,97181.63
2023-10-20T05:14:41.614Z,97184.81
2023-10-20T05:17:28.966Z,97190.94
2023-10-20T05:20:15.127Z,97182.44
2023-10-20T05:23:02.364Z,97182.13
2023-10-20T05:25:51.073Z,97187.19
2023-10-20T05:28:36.319Z,97187.50
2023-10-20T05:31:30.952Z,97180.81
2023-10-20T05:34:16.690Z,97187.72
2023-10-20T05:37:02.733Z,97171.69
2023-10-20T05:39:48.696Z,97185.03
2023-10-20T05:42:34.152Z,97189.03
2023-10-20T05:45:22.188Z,97182.34
2023-10-20T05:48:09.446Z,97184.75
2023-10-20T05:50:58.460Z,97189.56
2023-10-20T05:53:43.932Z,97195.13
2023-10-20T05:56:29.340Z,97192.72
2023-10-20T05:59:15.215Z,97188.72
2023-10-20T06:02:00.609Z,97189.75
2023-10-20T06:04:45.847Z,97184.41
2023-10-20T06:07:31.188Z,97185.44
2023-10-20T06:10:23.380Z,97179.56
2023-10-20T06:13:09.355Z,97177.41
2023-10-20T06:15:55.256Z,97179.53
2023-10-20T06:18:43.420Z,97180.03
2023-10-20T06:21:29.717Z,97165.84
2023-10-20T06:24:15.673Z,97160.78
2023-10-20T06:27:04.037Z,97161.78
2023-10-20T06:29:56.608Z,97162.84
2023-10-20T06:32:46.212Z,97164.44
2023-10-20T06:35:34.152Z,97165.50
2023-10-20T06:38:32.014Z,97171.88
2023-10-20T06:41:18.116Z,97171.53
2023-10-20T06:44:03.600Z,97180.63
2023-10-20T06:46:49.113Z,97181.94
2023-10-20T06:49:34.475Z,97178.44
2023-10-20T06:52:20.012Z,97180.81
2023-10-20T06:57:55.129Z,97159.38
2023-10-20T07:00:41.223Z,97170.03
2023-10-20T07:03:26.856Z,97154.47
2023-10-20T07:06:12.902Z,97151.75
2023-10-20T07:08:58.839Z,97145.81
2023-10-20T07:11:45.375Z,97138.25
2023-10-20T07:14:31.099Z,97140.88
2023-10-20T07:17:17.049Z,97123.13
2023-10-20T07:20:06.088Z,97117.16
2023-10-20T07:22:51.265Z,97124.09
2023-10-20T07:25:36.645Z,97131.47
2023-10-20T07:28:23.107Z,97124.97
2023-10-20T07:31:16.829Z,97126.22
2023-10-20T07:34:03.310Z,97114.09
2023-10-20T07:36:48.875Z,97113.16
2023-10-20T07:39:35.477Z,97117.88
2023-10-20T07:42:21.313Z,97115.66
2023-10-20T07:45:08.672Z,97104.28
2023-10-20T07:47:53.915Z,97098.56
2023-10-20T07:50:40.341Z,97094.22
2023-10-20T07:53:28.066Z,97096.84
2023-10-20T07:56:13.452Z,97095.16
2023-10-20T07:58:59.291Z,97085.47
2023-10-20T08:01:44.867Z,97088.06
2023-10-20T08:04:30.925Z,97095.50
2023-10-20T08:07:17.339Z,97086.63
2023-10-20T08:10:02.950Z,97075.78
2023-10-20T08:12:48.229Z,97069.19
2023-10-20T08:15:40.121Z,97064.06
2023-10-20T08:18:25.906Z,63576.22
2023-10-20T08:21:11.828Z,63576.22
2023-10-20T08:24:00.380Z,63576.22
2023-10-20T08:26:45.719Z,63576.22
2023-10-20T08:29:33.076Z,63576.22
2023-10-20T08:32:18.812Z,63576.22
2023-10-20T08:35:08.871Z,63576.22
2023-10-20T08:37:54.518Z,63576.22
2023-10-20T08:43:29.122Z,63576.22
2023-10-20T08:46:17.907Z,63576.22
2023-10-20T08:49:06.702Z,63576.22
2023-10-20T08:51:55.142Z,63576.22
2023-10-20T08:54:41.104Z,63576.22
2023-10-20T08:57:28.930Z,63576.22
2023-10-20T09:00:21.914Z,63576.22
2023-10-20T09:03:07.606Z,63576.22
2023-10-20T09:06:06.915Z,63576.22
2023-10-20T09:08:53.039Z,63576.22
2023-10-20T09:11:42.086Z,63576.22
2023-10-20T09:14:29.135Z,63576.22
2023-10-20T09:17:35.436Z,63576.22
2023-10-20T09:20:21.741Z,63576.22
2023-10-20T09:23:14.016Z,63576.22
2023-10-20T09:26:00.226Z,63576.22
2023-10-20T09:28:51.285Z,63576.22
2023-10-20T09:31:37.195Z,63576.22
2023-10-20T09:34:22.833Z,63576.22
2023-10-20T09:37:12.562Z,63576.22
2023-10-20T09:40:09.827Z,63576.22
2023-10-20T09:43:26.216Z,63576.22
2023-10-20T09:47:00.863Z,63576.22
2023-10-20T09:49:47.406Z,63576.22
2023-10-20T09:52:34.246Z,63576.22
2023-10-20T09:55:20.923Z,63576.22
2023-10-20T09:58:06.771Z,63576.22
2023-10-20T10:00:52.233Z,63576.22
2023-10-20T10:03:43.690Z,63576.22
2023-10-20T10:06:39.526Z,63576.22
2023-10-20T10:09:36.868Z,63576.22
2023-10-20T10:12:28.446Z,63576.22
2023-10-20T10:15:15.076Z,63576.22
2023-10-20T10:18:13.258Z,63576.22
2023-10-20T10:21:06.496Z,63576.22
2023-10-20T10:24:21.805Z,63576.22
2023-10-20T10:27:08.742Z,63576.22
2023-10-20T10:30:01.301Z,63576.22
2023-10-20T10:32:48.849Z,63576.22
2023-10-20T10:35:38.238Z,63576.22
2023-10-20T10:38:28.233Z,63576.22
2023-10-20T10:41:14.209Z,63576.22
2023-10-20T10:43:59.872Z,63576.22
2023-10-20T10:46:49.068Z,63576.22
2023-10-20T10:49:35.013Z,63576.22
2023-10-20T10:52:20.493Z,63576.22
2023-10-20T10:55:06.986Z,63576.22
2023-10-20T10:57:52.807Z,63576.22
2023-10-20T11:00:46.139Z,63576.22
2023-10-20T11:03:32.492Z,63576.22
2023-10-20T11:06:00.896Z,63576.22
2023-10-20T11:08:30.819Z,63576.22
2023-10-20T11:11:00.333Z,63576.22
2023-10-20T11:13:33.855Z,63576.22
2023-10-20T11:16:04.725Z,63576.22
2023-10-20T11:18:34.217Z,63576.22
2023-10-20T11:21:02.344Z,63576.22
2023-10-20T11:23:31.696Z,63576.22
2023-10-20T11:25:59.506Z,63576.22
2023-10-20T11:28:29.873Z,63576.22
2023-10-20T11:30:57.950Z,63576.22
2023-10-20T11:33:25.356Z,63576.22
2023-10-20T11:35:54.790Z,63576.22
2023-10-20T11:38:23.662Z,63576.22
2023-10-20T11:40:52.100Z,63576.22
2023-10-20T11:43:19.100Z,63576.22
2023-10-20T11:45:46.553Z,63576.22
2023-10-20T11:48:13.646Z,63576.22
2023-10-20T11:50:41.121Z,63576.22
2023-10-20T11:53:08.237Z,63576.22
2023-10-20T11:55:36.109Z,63576.22
2023-10-20T11:58:05.064Z,63576.22
2023-10-20T12:00:33.081Z,63576.22
2023-10-20T12:03:00.149Z,63576.22
2023-10-20T12:05:27.782Z,63576.22
2023-10-20T12:07:54.772Z,63576.22
2023-10-20T12:10:24.966Z,63576.22
2023-10-20T12:12:52.736Z,63576.22
2023-10-20T12:15:20.514Z,63576.22
2023-10-20T12:17:47.860Z,63576.22
2023-10-20T12:20:16.440Z,63576.22
2023-10-20T12:22:43.603Z,63576.22
2023-10-20T12:25:11.100Z,63576.22
2023-10-20T12:27:39.051Z,63576.22
2023-10-20T12:30:07.408Z,63576.22
2023-10-20T12:32:34.695Z,63576.22
2023-10-20T12:35:02.041Z,63576.22
2023-10-20T12:37:29.132Z,63576.22
2023-10-20T12:39:56.626Z,63576.22
2023-10-20T12:42:23.923Z,63576.22
2023-10-20T12:44:51.340Z,63576.22
2023-10-20T12:47:20.329Z,63576.22
2023-10-20T12:49:47.734Z,63576.22
2023-10-20T12:52:14.807Z,63576.22
2023-10-20T12:54:42.761Z,63576.22
2023-10-20T12:57:09.941Z,63576.22
2023-10-20T12:59:37.293Z,63576.22
2023-10-20T13:02:05.364Z,63576.22
2023-10-20T13:04:32.844Z,63576.22
2023-10-20T13:07:01.268Z,63576.22
2023-10-20T13:09:29.385Z,63576.22
2023-10-20T13:12:00.066Z,63576.22
2023-10-20T13:14:29.826Z,63576.22
2023-10-20T13:16:58.110Z,63576.22
2023-10-20T13:19:25.647Z,63576.22
2023-10-20T13:21:53.926Z,63576.22
2023-10-20T13:24:21.281Z,63576.22
2023-10-20T13:26:48.313Z,63576.22
2023-10-20T13:29:16.779Z,63576.22
2023-10-20T13:31:44.011Z,63576.22
2023-10-20T13:34:11.426Z,63576.22
2023-10-20T13:36:38.729Z,63576.22
2023-10-20T13:39:17.202Z,63576.22
2023-10-20T13:41:47.121Z,63576.22
2023-10-20T13:44:16.032Z,63576.22
2023-10-20T13:46:42.976Z,63576.22
2023-10-20T13:49:10.417Z,63576.22
2023-10-20T13:51:37.493Z,63576.22
2023-10-20T13:54:05.663Z,63576.22
2023-10-20T13:56:33.133Z,63576.22
2023-10-20T13:59:00.438Z,63576.22
2023-10-20T14:01:27.618Z,63576.22
2023-10-20T14:03:55.240Z,63576.22
2023-10-20T14:06:24.854Z,63576.22
2023-10-20T14:08:52.696Z,63576.22
2023-10-20T14:11:19.975Z,63576.22
2023-10-20T14:13:47.607Z,63576.22
2023-10-20T14:16:14.706Z,63576.22
2023-10-20T14:18:42.523Z,63576.22
2023-10-20T14:21:09.968Z,63576.22
2023-10-20T14:23:37.377Z,63576.22
2023-10-20T14:26:04.530Z,63576.22
2023-10-20T14:28:34.702Z,63576.22
2023-10-20T14:31:03.104Z,63576.22
2023-10-20T14:33:31.245Z,63576.22
2023-10-20T14:35:58.729Z,63576.22
2023-10-20T14:38:27.754Z,63576.22
2023-10-20T14:41:03.711Z,63576.22
2023-10-20T14:43:36.888Z,63576.22
2023-10-20T14:46:07.009Z,63576.22
2023-10-20T14:48:35.441Z,63576.22
2023-10-20T14:51:08.667Z,63576.22
2023-10-20T14:53:36.585Z,63576.22
2023-10-20T14:56:04.849Z,63576.22
2023-10-20T14:58:32.436Z,63576.22
2023-10-20T15:00:59.849Z,63576.22
2023-10-20T15:03:27.947Z,63576.22
2023-10-20T15:05:55.219Z,63576.22
2023-10-20T15:08:24.291Z,63576.22
2023-10-20T15:10:51.720Z,63576.22
2023-10-20T15:13:21.233Z,63576.22
2023-10-20T15:15:48.529Z,63576.22
2023-10-20T15:18:15.904Z,63576.22
2023-10-20T15:20:43.064Z,63576.22
2023-10-20T15:23:17.821Z,63576.22
2023-10-20T15:25:46.261Z,63576.22
2023-10-20T15:28:14.027Z,63576.22
2023-10-20T15:30:41.267Z,63576.22
2023-10-20T15:33:09.108Z,63576.22
2023-10-20T15:35:40.319Z,63576.22
2023-10-20T15:38:11.414Z,63576.22
2023-10-20T15:40:39.987Z,63576.22
2023-10-20T15:43:07.704Z,63576.22
2023-10-20T15:45:35.717Z,63576.22
2023-10-20T15:48:06.114Z,63576.22
2023-10-20T15:50:33.906Z,63576.22
2023-10-20T15:53:03.742Z,63576.22
2023-10-20T15:55:30.790Z,63576.22
2023-10-20T15:57:58.057Z,63576.22
2023-10-20T16:00:26.126Z,63576.22
2023-10-20T16:02:53.567Z,63576.22
2023-10-20T16:05:20.941Z,63576.22
2023-10-20T16:07:48.479Z,63576.22
2023-10-20T16:10:15.549Z,63576.22
2023-10-20T16:12:42.910Z,63576.22
2023-10-20T16:15:10.865Z,63576.22
2023-10-20T16:17:38.381Z,63576.22
2023-10-20T16:20:06.321Z,63576.22
2023-10-20T16:22:33.639Z,63576.22
2023-10-20T16:25:00.813Z,63576.22
2023-10-20T16:27:28.735Z,63576.22
2023-10-20T16:29:55.864Z,63576.22
2023-10-20T16:32:24.429Z,63576.22
2023-10-20T16:34:52.228Z,63576.22
2023-10-20T16:37:20.534Z,63576.22
2023-10-20T16:39:47.895Z,63576.22
2023-10-20T16:42:15.330Z,63576.22
2023-10-20T16:44:42.774Z,63576.22
2023-10-20T16:47:10.358Z,63576.22
2023-10-20T16:49:37.926Z,63576.22
2023-10-20T16:52:06.077Z,63576.22
2023-10-20T16:54:33.296Z,63576.22
2023-10-20T16:57:00.601Z,63576.22
2023-10-20T16:59:29.861Z,63576.22
2023-10-20T17:01:57.414Z,63576.22
2023-10-20T17:04:25.385Z,63576.22
2023-10-20T17:06:52.885Z,63576.22
2023-10-20T17:09:19.922Z,63576.22
2023-10-20T17:11:47.346Z,63576.22
2023-10-20T17:14:14.494Z,63576.22
2023-10-20T17:16:44.491Z,63576.22
2023-10-20T17:19:11.606Z,63576.22
2023-10-20T17:21:39.011Z,63576.22
2023-10-20T17:24:07.288Z,63576.22
2023-10-20T17:26:36.415Z,63576.22
2023-10-20T17:29:15.374Z,63576.22
2023-10-20T17:31:43.143Z,63576.22
2023-10-20T17:34:10.186Z,63576.22
2023-10-20T17:36:37.624Z,63576.22
2023-10-20T17:39:07.339Z,63576.22
2023-10-20T17:41:49.481Z,63576.22
2023-10-20T17:44:16.921Z,63576.22
2023-10-20T17:46:44.303Z,63576.22
2023-10-20T17:49:11.341Z,63576.22
2023-10-20T17:51:38.598Z,63576.22
2023-10-20T17:54:05.802Z,63576.22
2023-10-20T17:56:33.312Z,63576.22
2023-10-20T17:59:00.411Z,63576.22
2023-10-20T18:01:27.820Z,63576.22
2023-10-20T18:03:55.120Z,63576.22
2023-10-20T18:06:22.627Z,63576.22
2023-10-20T18:08:52.626Z,63576.22
2023-10-20T18:11:22.034Z,63576.22
2023-10-20T18:13:52.402Z,63576.22
2023-10-20T18:16:22.366Z,63576.22
2023-10-20T18:18:51.025Z,63576.22
2023-10-20T18:21:21.208Z,63576.22
2023-10-20T18:23:48.838Z,63576.22
2023-10-20T18:26:16.315Z,63576.22
2023-10-20T18:28:43.591Z,63576.22
2023-10-20T18:31:16.904Z,63576.22
2023-10-20T18:33:46.375Z,63576.22
2023-10-20T18:36:13.862Z,63576.22
2023-10-20T18:38:41.621Z,63576.22
2023-10-20T18:41:18.350Z,63576.22
2023-10-20T18:43:46.226Z,63576.22
2023-10-20T18:46:14.364Z,63576.22
2023-10-20T18:48:42.196Z,63576.22
2023-10-20T18:51:13.937Z,63576.22
2023-10-20T18:53:42.351Z,63576.22
2023-10-20T18:56:10.380Z,63576.22
2023-10-20T18:58:38.057Z,63576.22
2023-10-20T19:01:05.613Z,63576.22
2023-10-20T19:03:35.087Z,63576.22
2023-10-20T19:06:09.592Z,63576.22
2023-10-20T19:08:38.333Z,63576.22
2023-10-20T19:11:11.409Z,63576.22
2023-10-20T19:13:39.276Z,63576.22
2023-10-20T19:16:07.104Z,63576.22
2023-10-20T19:18:34.677Z,63576.22
2023-10-20T19:21:06.223Z,63576.22
2023-10-20T19:23:34.457Z,63576.22
2023-10-20T19:26:06.611Z,63576.22
2023-10-20T19:28:33.877Z,63576.22
2023-10-20T19:31:05.586Z,63576.22
2023-10-20T19:33:33.275Z,63576.22
2023-10-20T19:36:07.379Z,63576.22
2023-10-20T19:38:35.363Z,63576.22
2023-10-20T19:41:02.984Z,63576.22
2023-10-20T19:43:30.402Z,63576.22
2023-10-20T19:45:57.919Z,63576.22
2023-10-20T19:48:25.302Z,63576.22
2023-10-20T19:50:52.902Z,63576.22
2023-10-20T19:53:20.447Z,63576.22
2023-10-20T19:55:47.929Z,63576.22
2023-10-20T19:58:15.258Z,63576.22
2023-10-20T20:00:42.889Z,63576.22
2023-10-20T20:03:11.913Z,63576.22
2023-10-20T20:05:39.931Z,63576.22
2023-10-20T20:08:07.357Z,63576.22
2023-10-20T20:10:34.746Z,63576.22
2023-10-20T20:13:04.579Z,63576.22
2023-10-20T20:15:32.354Z,63576.22
2023-10-20T20:17:59.593Z,63576.22
2023-10-20T20:20:27.416Z,63576.22
2023-10-20T20:22:54.550Z,63576.22
2023-10-20T20:25:22.110Z,63576.22
2023-10-20T20:27:49.441Z,63576.22
2023-10-20T20:30:16.822Z,63576.22
2023-10-20T20:32:44.579Z,63576.22
2023-10-20T20:35:12.108Z,63576.22
2023-10-20T20:37:39.082Z,63576.22
2023-10-20T20:40:08.777Z,63576.22
2023-10-20T20:42:36.371Z,63576.22
2023-10-20T20:45:04.524Z,63576.22
2023-10-20T20:47:31.691Z,63576.22
2023-10-20T20:49:59.574Z,63576.22
2023-10-20T20:52:26.605Z,63576.22
2023-10-20T20:54:56.058Z,63576.22
2023-10-20T20:57:23.873Z,63576.22
2023-10-20T20:59:51.367Z,63576.22
2023-10-20T21:02:18.475Z,63576.22
2023-10-20T21:04:46.119Z,63576.22
2023-10-20T21:07:13.152Z,63576.22
2023-10-20T21:09:40.566Z,63576.22
2023-10-20T21:12:08.232Z,63576.22
2023-10-20T21:14:35.919Z,63576.22
2023-10-20T21:17:03.628Z,63576.22
2023-10-20T21:19:30.936Z,63576.22
2023-10-20T21:21:58.083Z,63576.22
2023-10-20T21:24:25.368Z,63576.22
2023-10-20T21:26:54.123Z,63576.22
2023-10-20T21:29:26.584Z,63576.22
2023-10-20T21:31:54.211Z,63576.22
2023-10-20T21:34:21.633Z,63576.22
2023-10-20T21:36:48.667Z,63576.22
2023-10-20T21:39:16.598Z,63576.22
2023-10-20T21:41:43.755Z,63576.22
2023-10-20T21:44:11.515Z,63576.22
2023-10-20T21:46:39.499Z,63576.22
2023-10-20T21:49:10.002Z,63576.22
2023-10-20T21:51:37.118Z,63576.22
2023-10-20T21:54:07.988Z,63576.22
2023-10-20T21:56:35.297Z,63576.22
2023-10-20T21:59:02.634Z,63576.22
2023-10-20T22:01:29.850Z,63576.22
2023-10-20T22:03:57.244Z,63576.22
2023-10-20T22:06:24.546Z,63576.22
2023-10-20T22:08:52.704Z,63576.22
2023-10-20T22:11:19.869Z,63576.22
2023-10-20T22:13:47.089Z,63576.22
2023-10-20T22:16:14.182Z,63576.22
2023-10-20T22:18:41.648Z,63576.22
2023-10-20T22:21:08.695Z,63576.22
2023-10-20T22:23:36.173Z,63576.22
2023-10-20T22:26:03.253Z,63576.22
2023-10-20T22:28:32.434Z,63576.22
2023-10-20T22:30:59.863Z,63576.22
2023-10-20T22:33:27.345Z,63576.22
2023-10-20T22:35:54.556Z,63576.22
2023-10-20T22:38:21.883Z,63576.22
2023-10-20T22:40:49.456Z,63576.22
2023-10-20T22:43:16.690Z,63576.22
2023-10-20T22:45:43.861Z,63576.22
2023-10-20T22:48:11.224Z,63576.22
2023-10-20T22:50:38.343Z,63576.22
2023-10-20T22:53:05.882Z,63576.22
2023-10-20T22:55:33.314Z,63576.22
2023-10-20T22:58:00.673Z,63576.22
2023-10-20T23:00:27.832Z,63576.22
2023-10-20T23:02:55.207Z,63576.22
2023-10-20T23:05:23.273Z,63576.22
2023-10-20T23:07:51.392Z,63576.22
2023-10-20T23:10:18.485Z,63576.22
2023-10-20T23:12:45.895Z,63576.22
2023-10-20T23:15:13.029Z,63576.22
2023-10-20T23:17:40.397Z,63576.22
2023-10-20T23:20:08.581Z,63576.22
2023-10-20T23:22:35.942Z,63576.22
2023-10-20T23:25:04.045Z,63576.22
2023-10-20T23:27:31.333Z,63576.22
2023-10-20T23:29:58.448Z,63576.22
2023-10-20T23:32:26.106Z,63576.22
2023-10-20T23:34:54.537Z,63576.22
2023-10-20T23:37:22.830Z,63576.22
2023-10-20T23:39:50.118Z,63576.22
2023-10-20T23:42:17.444Z,63576.22
2023-10-20T23:44:44.704Z,63576.22
2023-10-20T23:47:12.032Z,63576.22
2023-10-20T23:49:39.917Z,63576.22
2023-10-20T23:52:07.349Z,63576.22
2023-10-20T23:54:34.412Z,63576.22
2023-10-20T23:57:05.094Z,63576.22
2023-10-20T23:59:32.269Z,63576.22
